createdAt,value
2022-10-16T00:01:21.910Z,12.80
2022-10-16T00:03:49.295Z,12.80
2022-10-16T00:06:17.837Z,12.80
2022-10-16T00:08:45.529Z,12.80
2022-10-16T00:11:16.599Z,12.70
2022-10-16T00:13:44.753Z,12.80
2022-10-16T00:16:12.643Z,12.80
2022-10-16T00:18:40.018Z,12.70
2022-10-16T00:21:13.113Z,12.60
2022-10-16T00:23:40.422Z,12.70
2022-10-16T00:26:09.981Z,12.70
2022-10-16T00:28:37.234Z,12.70
2022-10-16T00:31:09.117Z,12.60
2022-10-16T00:33:36.942Z,12.60
2022-10-16T00:36:05.138Z,12.70
2022-10-16T00:38:32.325Z,12.70
2022-10-16T00:40:59.819Z,12.70
2022-10-16T00:43:50.445Z,12.70
2022-10-16T00:46:49.689Z,12.60
2022-10-16T00:49:20.063Z,12.60
2022-10-16T00:51:50.261Z,12.70
2022-10-16T00:54:29.248Z,12.60
2022-10-16T00:56:59.109Z,12.60
2022-10-16T00:59:37.204Z,12.70
2022-10-16T01:02:06.133Z,12.80
2022-10-16T01:04:37.785Z,12.80
2022-10-16T01:07:28.641Z,12.80
2022-10-16T01:10:18.044Z,12.80
2022-10-16T01:13:17.011Z,12.90
2022-10-16T01:15:50.827Z,12.90
2022-10-16T01:18:43.808Z,13.00
2022-10-16T01:21:15.967Z,12.90
2022-10-16T01:23:48.557Z,12.90
2022-10-16T01:26:28.652Z,12.80
2022-10-16T01:29:22.110Z,12.80
2022-10-16T01:32:14.146Z,12.90
2022-10-16T01:34:59.927Z,12.80
2022-10-16T01:37:36.297Z,12.80
2022-10-16T01:40:07.115Z,12.80
2022-10-16T01:42:39.017Z,12.80
2022-10-16T01:45:08.755Z,12.70
2022-10-16T01:47:37.423Z,12.80
2022-10-16T01:50:06.441Z,12.80
2022-10-16T01:52:37.414Z,12.70
2022-10-16T01:55:08.126Z,12.70
2022-10-16T01:57:39.910Z,12.70
2022-10-16T02:00:11.239Z,12.80
2022-10-16T02:02:45.358Z,12.70
2022-10-16T02:05:19.270Z,12.70
2022-10-16T02:07:46.790Z,12.80
2022-10-16T02:10:13.557Z,12.90
2022-10-16T02:12:44.289Z,12.80
2022-10-16T02:15:11.045Z,12.80
2022-10-16T02:17:37.799Z,12.80
2022-10-16T02:20:05.868Z,12.80
2022-10-16T02:22:40.446Z,12.80
2022-10-16T02:25:27.332Z,12.80
2022-10-16T02:28:09.617Z,12.80
2022-10-16T02:30:39.201Z,12.80
2022-10-16T02:33:10.518Z,12.80
2022-10-16T02:35:38.732Z,12.70
2022-10-16T02:38:06.377Z,12.60
2022-10-16T02:40:33.277Z,12.60
2022-10-16T02:43:00.327Z,12.60
2022-10-16T02:45:27.832Z,12.60
2022-10-16T02:47:54.513Z,12.70
2022-10-16T02:50:21.310Z,12.60
2022-10-16T02:52:47.990Z,12.50
2022-10-16T02:55:14.818Z,12.60
2022-10-16T02:57:41.571Z,12.60
2022-10-16T03:00:10.899Z,12.60
2022-10-16T03:02:37.622Z,12.50
2022-10-16T03:05:04.790Z,12.60
2022-10-16T03:07:31.500Z,12.50
2022-10-16T03:10:01.076Z,12.60
2022-10-16T03:12:28.988Z,12.60
2022-10-16T03:14:57.608Z,12.60
2022-10-16T03:17:25.444Z,12.70
2022-10-16T03:19:52.797Z,12.60
2022-10-16T03:22:19.677Z,12.70
2022-10-16T03:24:46.673Z,12.70
2022-10-16T03:27:13.414Z,12.70
2022-10-16T03:29:40.248Z,12.70
2022-10-16T03:32:07.016Z,12.60
2022-10-16T03:34:33.895Z,12.60
2022-10-16T03:37:00.778Z,12.70
2022-10-16T03:39:28.263Z,12.60
2022-10-16T03:41:55.008Z,12.60
2022-10-16T03:44:22.636Z,12.60
2022-10-16T03:46:50.193Z,12.60
2022-10-16T03:49:16.927Z,12.70
2022-10-16T03:51:43.655Z,12.70
2022-10-16T03:54:11.600Z,12.70
2022-10-16T03:56:38.284Z,12.60
2022-10-16T03:59:05.445Z,12.60
2022-10-16T04:01:32.306Z,12.70
2022-10-16T04:03:59.110Z,12.70
2022-10-16T04:06:25.782Z,12.70
2022-10-16T04:08:52.642Z,12.70
2022-10-16T04:11:19.655Z,12.70
2022-10-16T04:13:46.467Z,12.80
2022-10-16T04:16:13.172Z,12.80
2022-10-16T04:18:40.071Z,12.60
2022-10-16T04:21:07.681Z,12.70
2022-10-16T04:23:34.724Z,12.80
2022-10-16T04:26:01.633Z,12.80
2022-10-16T04:28:28.605Z,12.80
2022-10-16T04:30:55.433Z,12.80
2022-10-16T04:33:22.234Z,12.70
2022-10-16T04:35:48.989Z,12.70
2022-10-16T04:38:15.758Z,12.70
2022-10-16T04:40:43.645Z,12.70
2022-10-16T04:43:10.654Z,12.60
2022-10-16T04:45:37.408Z,12.60
2022-10-16T04:48:04.282Z,12.70
2022-10-16T04:50:31.089Z,12.70
2022-10-16T04:53:07.432Z,12.80
2022-10-16T04:55:34.191Z,12.80
2022-10-16T04:58:00.885Z,12.80
2022-10-16T05:00:27.917Z,12.80
2022-10-16T05:02:54.671Z,12.70
2022-10-16T05:05:21.690Z,12.80
2022-10-16T05:07:50.565Z,12.80
2022-10-16T05:10:17.786Z,12.80
2022-10-16T05:12:44.712Z,12.80
2022-10-16T05:15:11.708Z,12.70
2022-10-16T05:17:42.393Z,12.80
2022-10-16T05:20:12.164Z,12.80
2022-10-16T05:22:39.401Z,12.80
2022-10-16T05:25:06.529Z,12.70
2022-10-16T05:27:33.202Z,12.70
2022-10-16T05:29:59.990Z,12.70
2022-10-16T05:32:26.749Z,12.70
2022-10-16T05:34:53.571Z,12.70
2022-10-16T05:37:20.607Z,12.60
2022-10-16T05:39:47.597Z,12.70
2022-10-16T05:42:14.329Z,12.70
2022-10-16T05:44:41.224Z,12.70
2022-10-16T05:47:08.071Z,12.70
2022-10-16T05:49:37.854Z,12.70
2022-10-16T05:52:07.481Z,12.80
2022-10-16T05:54:34.260Z,12.70
2022-10-16T05:57:01.054Z,12.70
2022-10-16T05:59:27.990Z,12.70
2022-10-16T06:01:54.748Z,12.80
2022-10-16T06:04:21.489Z,12.80
2022-10-16T06:06:48.296Z,12.80
2022-10-16T06:09:15.457Z,12.90
2022-10-16T06:11:42.659Z,13.10
2022-10-16T06:14:09.889Z,13.10
2022-10-16T06:16:37.895Z,13.00
2022-10-16T06:19:10.256Z,13.00
2022-10-16T06:21:37.425Z,13.10
2022-10-16T06:24:04.550Z,13.20
2022-10-16T06:26:32.660Z,13.30
2022-10-16T06:29:00.945Z,13.30
2022-10-16T06:31:31.253Z,13.30
2022-10-16T06:33:58.749Z,13.40
2022-10-16T06:36:26.173Z,13.40
2022-10-16T06:38:53.565Z,13.50
2022-10-16T06:41:22.407Z,13.50
2022-10-16T06:43:49.918Z,13.60
2022-10-16T06:46:20.754Z,13.60
2022-10-16T06:48:47.921Z,13.60
2022-10-16T06:51:20.264Z,13.60
2022-10-16T06:54:05.026Z,13.70
2022-10-16T06:56:33.454Z,13.60
2022-10-16T06:59:01.270Z,13.70
2022-10-16T07:01:28.735Z,13.70
2022-10-16T07:03:55.482Z,13.70
2022-10-16T07:06:27.758Z,13.70
2022-10-16T07:08:54.970Z,13.70
2022-10-16T07:11:23.922Z,13.80
2022-10-16T07:13:55.059Z,13.90
2022-10-16T07:16:29.155Z,13.90
2022-10-16T07:19:00.581Z,14.10
2022-10-16T07:21:36.676Z,14.10
2022-10-16T07:24:08.668Z,14.20
2022-10-16T07:26:36.265Z,14.30
2022-10-16T07:29:04.554Z,14.30
2022-10-16T07:31:31.548Z,14.20
2022-10-16T07:33:59.956Z,14.20
2022-10-16T07:36:26.807Z,14.30
2022-10-16T07:38:55.647Z,14.30
2022-10-16T07:41:25.770Z,14.40
2022-10-16T07:43:53.861Z,14.60
2022-10-16T07:46:22.667Z,14.80
2022-10-16T07:48:50.252Z,14.90
2022-10-16T07:51:19.569Z,15.00
2022-10-16T07:53:46.815Z,15.00
2022-10-16T07:56:14.363Z,15.00
2022-10-16T07:58:41.547Z,15.10
2022-10-16T08:01:11.367Z,15.10
2022-10-16T08:03:38.284Z,15.10
2022-10-16T08:06:05.732Z,15.20
2022-10-16T08:08:32.591Z,15.20
2022-10-16T08:10:59.343Z,15.30
2022-10-16T08:13:27.386Z,15.40
2022-10-16T08:15:55.420Z,15.40
2022-10-16T08:18:22.473Z,15.40
2022-10-16T08:20:55.554Z,15.40
2022-10-16T08:23:22.246Z,15.50
2022-10-16T08:25:49.008Z,15.50
2022-10-16T08:28:16.642Z,15.60
2022-10-16T08:30:43.466Z,15.60
2022-10-16T08:33:10.184Z,15.50
2022-10-16T08:35:37.054Z,15.70
2022-10-16T08:38:07.948Z,15.70
2022-10-16T08:40:37.927Z,15.70
2022-10-16T08:43:24.377Z,15.60
2022-10-16T08:46:02.525Z,15.60
2022-10-16T08:48:33.302Z,15.50
2022-10-16T08:51:03.977Z,15.60
2022-10-16T08:53:47.619Z,15.70
2022-10-16T08:56:14.321Z,15.70
2022-10-16T08:58:41.161Z,15.80
2022-10-16T09:01:14.907Z,15.90
2022-10-16T09:04:08.515Z,15.80
2022-10-16T09:06:55.463Z,15.80
2022-10-16T09:09:50.395Z,16.00
2022-10-16T09:12:39.684Z,16.20
2022-10-16T09:15:25.630Z,16.30
2022-10-16T09:18:02.866Z,16.60
2022-10-16T09:20:35.505Z,16.70
2022-10-16T09:23:19.538Z,16.70
2022-10-16T09:25:48.717Z,16.60
2022-10-16T09:28:17.183Z,16.70
2022-10-16T09:30:44.321Z,16.70
2022-10-16T09:33:12.872Z,16.60
2022-10-16T09:35:49.747Z,16.40
2022-10-16T09:38:27.275Z,16.50
2022-10-16T09:40:59.221Z,16.60
2022-10-16T09:43:55.040Z,16.60
2022-10-16T09:46:33.977Z,16.90
2022-10-16T09:49:23.313Z,17.20
2022-10-16T09:51:50.349Z,17.00
2022-10-16T09:54:20.318Z,16.90
2022-10-16T09:56:50.213Z,16.90
2022-10-16T09:59:18.131Z,17.20
2022-10-16T10:01:51.722Z,17.60
2022-10-16T10:04:23.808Z,18.00
2022-10-16T10:06:58.293Z,18.30
2022-10-16T10:09:31.937Z,18.40
2022-10-16T10:12:00.013Z,18.60
2022-10-16T10:14:31.419Z,19.00
2022-10-16T10:17:07.281Z,19.60
2022-10-16T10:19:47.205Z,20.10
2022-10-16T10:22:32.277Z,20.50
2022-10-16T10:25:14.408Z,20.70
2022-10-16T10:27:44.119Z,20.80
2022-10-16T10:30:23.656Z,20.80
2022-10-16T10:33:19.367Z,21.10
2022-10-16T10:36:25.355Z,21.40
2022-10-16T10:39:17.978Z,21.80
2022-10-16T10:42:00.344Z,22.00
2022-10-16T10:44:56.461Z,21.90
2022-10-16T10:47:41.344Z,22.00
2022-10-16T10:50:13.552Z,21.90
2022-10-16T10:52:56.642Z,21.80
2022-10-16T10:55:34.588Z,21.60
2022-10-16T10:58:23.037Z,21.30
2022-10-16T11:01:02.107Z,21.10
2022-10-16T11:03:43.873Z,21.10
2022-10-16T11:06:25.303Z,21.30
2022-10-16T11:09:01.418Z,21.50
2022-10-16T11:11:36.654Z,21.50
2022-10-16T11:14:35.558Z,21.50
2022-10-16T11:17:28.178Z,21.40
2022-10-16T11:20:04.199Z,21.40
2022-10-16T11:22:39.670Z,21.60
2022-10-16T11:25:18.645Z,21.60
2022-10-16T11:28:10.676Z,21.70
2022-10-16T11:31:01.457Z,21.70
2022-10-16T11:33:37.336Z,21.60
2022-10-16T11:36:37.612Z,21.60
2022-10-16T11:39:26.808Z,21.50
2022-10-16T11:42:17.885Z,21.30
2022-10-16T11:45:10.113Z,21.20
2022-10-16T11:47:58.278Z,21.00
2022-10-16T11:50:44.584Z,20.90
2022-10-16T11:53:23.095Z,21.10
2022-10-16T11:55:50.452Z,21.40
2022-10-16T11:58:29.947Z,21.50
2022-10-16T12:01:00.955Z,22.00
2022-10-16T12:03:38.197Z,22.50
2022-10-16T12:06:33.773Z,22.90
2022-10-16T12:09:02.316Z,23.00
2022-10-16T12:11:28.990Z,23.20
2022-10-16T12:14:34.997Z,23.30
2022-10-16T12:17:24.653Z,23.30
2022-10-16T12:20:20.969Z,23.30
2022-10-16T12:23:15.106Z,23.30
2022-10-16T12:25:47.505Z,23.20
2022-10-16T12:28:17.296Z,23.30
2022-10-16T12:30:53.320Z,23.40
2022-10-16T12:33:30.614Z,23.50
2022-10-16T12:36:00.358Z,23.80
2022-10-16T12:38:31.751Z,23.50
2022-10-16T12:41:09.628Z,23.10
2022-10-16T12:43:38.719Z,22.90
2022-10-16T12:46:10.050Z,22.80
2022-10-16T12:48:48.633Z,22.60
2022-10-16T12:51:31.651Z,22.50
2022-10-16T12:54:01.871Z,22.40
2022-10-16T12:56:34.820Z,22.40
2022-10-16T12:59:01.760Z,22.40
2022-10-16T13:01:53.627Z,22.30
2022-10-16T13:04:39.188Z,22.50
2022-10-16T13:07:27.514Z,22.70
2022-10-16T13:10:27.563Z,22.80
2022-10-16T13:13:17.491Z,22.90
2022-10-16T13:15:59.343Z,23.00
2022-10-16T13:18:34.893Z,22.70
2022-10-16T13:21:07.524Z,22.40
2022-10-16T13:23:48.790Z,22.50
2022-10-16T13:26:15.828Z,22.70
2022-10-16T13:28:43.186Z,22.90
2022-10-16T13:31:39.279Z,23.20
2022-10-16T13:34:07.560Z,23.50
2022-10-16T13:36:51.283Z,23.50
2022-10-16T13:39:30.111Z,23.40
2022-10-16T13:42:10.558Z,23.20
2022-10-16T13:44:50.305Z,23.20
2022-10-16T13:47:21.957Z,23.10
2022-10-16T13:50:01.565Z,23.00
2022-10-16T13:52:29.990Z,23.00
2022-10-16T13:55:00.930Z,22.90
2022-10-16T13:57:29.784Z,22.80
2022-10-16T13:59:57.024Z,22.70
2022-10-16T14:02:27.772Z,22.70
2022-10-16T14:04:55.694Z,22.70
2022-10-16T14:07:28.885Z,22.70
2022-10-16T14:09:58.849Z,22.60
2022-10-16T14:12:28.157Z,22.50
2022-10-16T14:14:58.327Z,22.40
2022-10-16T14:17:30.973Z,22.50
2022-10-16T14:20:02.522Z,22.60
2022-10-16T14:22:42.133Z,22.60
2022-10-16T14:25:35.149Z,22.30
2022-10-16T14:28:09.486Z,22.00
2022-10-16T14:30:37.620Z,21.80
2022-10-16T14:33:22.623Z,21.50
2022-10-16T14:36:04.564Z,21.40
2022-10-16T14:38:32.638Z,21.40
2022-10-16T14:41:00.849Z,21.20
2022-10-16T14:43:30.513Z,21.20
2022-10-16T14:45:58.608Z,21.00
2022-10-16T14:48:25.985Z,21.00
2022-10-16T14:50:52.771Z,20.90
2022-10-16T14:53:19.625Z,20.90
2022-10-16T14:55:46.762Z,20.80
2022-10-16T14:58:22.425Z,20.70
2022-10-16T15:00:50.039Z,20.60
2022-10-16T15:03:17.837Z,20.50
2022-10-16T15:05:45.012Z,20.50
2022-10-16T15:08:13.362Z,20.50
2022-10-16T15:10:44.245Z,20.40
2022-10-16T15:13:14.676Z,20.20
2022-10-16T15:15:46.914Z,20.00
2022-10-16T15:18:16.303Z,20.00
2022-10-16T15:20:43.531Z,20.00
2022-10-16T15:23:17.846Z,19.90
2022-10-16T15:25:52.691Z,19.90
2022-10-16T15:28:20.996Z,19.90
2022-10-16T15:30:51.374Z,19.80
2022-10-16T15:33:23.015Z,19.60
2022-10-16T15:35:51.774Z,19.50
2022-10-16T15:38:20.928Z,19.30
2022-10-16T15:40:49.736Z,19.10
2022-10-16T15:43:16.981Z,19.10
2022-10-16T15:45:44.101Z,19.10
2022-10-16T15:48:14.683Z,19.10
2022-10-16T15:53:11.289Z,18.80
2022-10-16T15:55:38.890Z,18.60
2022-10-16T15:58:06.549Z,18.50
2022-10-16T16:00:33.830Z,18.40
2022-10-16T16:03:00.777Z,18.30
2022-10-16T16:05:28.547Z,18.30
2022-10-16T16:07:55.485Z,18.20
2022-10-16T16:10:22.576Z,18.10
2022-10-16T16:12:53.838Z,18.00
2022-10-16T16:15:22.398Z,17.80
2022-10-16T16:17:50.263Z,17.70
2022-10-16T16:20:17.529Z,17.50
2022-10-16T16:22:44.535Z,17.50
2022-10-16T16:25:11.597Z,17.40
2022-10-16T16:27:39.502Z,17.20
2022-10-16T16:30:16.758Z,17.10
2022-10-16T16:32:47.039Z,17.00
2022-10-16T16:35:14.038Z,17.00
2022-10-16T16:37:41.057Z,16.90
2022-10-16T16:40:08.240Z,16.80
2022-10-16T16:42:35.057Z,16.60
2022-10-16T16:45:01.875Z,16.50
2022-10-16T16:47:29.113Z,16.50
2022-10-16T16:49:56.293Z,16.40
2022-10-16T16:52:23.344Z,16.40
2022-10-16T16:54:52.930Z,16.20
2022-10-16T16:57:21.250Z,16.20
2022-10-16T16:59:51.036Z,16.20
2022-10-16T17:02:18.134Z,16.10
2022-10-16T17:04:45.010Z,16.00
2022-10-16T17:07:11.782Z,16.00
2022-10-16T17:09:38.684Z,16.00
2022-10-16T17:12:05.631Z,15.90
2022-10-16T17:14:32.964Z,15.80
2022-10-16T17:16:59.935Z,15.80
2022-10-16T17:19:26.868Z,15.80
2022-10-16T17:21:54.024Z,15.70
2022-10-16T17:24:21.591Z,15.60
2022-10-16T17:26:49.466Z,15.60
2022-10-16T17:29:18.568Z,15.50
2022-10-16T17:31:45.525Z,15.50
2022-10-16T17:34:12.761Z,15.50
2022-10-16T17:36:43.841Z,15.50
2022-10-16T17:39:14.023Z,15.40
2022-10-16T17:41:41.167Z,15.40
2022-10-16T17:44:08.288Z,15.40
2022-10-16T17:46:38.580Z,15.20
2022-10-16T17:49:09.446Z,15.20
2022-10-16T17:51:36.591Z,15.20
2022-10-16T17:54:03.491Z,15.20
2022-10-16T17:56:31.277Z,15.10
2022-10-16T17:59:00.371Z,15.10
2022-10-16T18:01:36.768Z,15.00
2022-10-16T18:04:09.616Z,15.00
2022-10-16T18:06:37.092Z,14.90
2022-10-16T18:09:06.040Z,14.90
2022-10-16T18:11:33.038Z,14.90
2022-10-16T18:14:00.243Z,14.90
2022-10-16T18:16:29.215Z,14.80
2022-10-16T18:18:57.423Z,14.70
2022-10-16T18:21:28.740Z,14.70
2022-10-16T18:23:56.089Z,14.80
2022-10-16T18:26:23.038Z,14.90
2022-10-16T18:28:53.557Z,15.20
2022-10-16T18:31:21.345Z,15.30
2022-10-16T18:33:50.251Z,15.10
2022-10-16T18:36:20.502Z,15.10
2022-10-16T18:38:47.685Z,15.20
2022-10-16T18:41:14.754Z,15.20
2022-10-16T18:43:41.561Z,15.20
2022-10-16T18:46:12.026Z,15.10
2022-10-16T18:48:39.847Z,15.20
2022-10-16T18:51:20.350Z,15.20
2022-10-16T18:53:50.095Z,15.20
2022-10-16T18:56:18.465Z,15.20
2022-10-16T18:58:48.450Z,15.20
2022-10-16T19:01:20.831Z,15.20
2022-10-16T19:03:48.674Z,15.00
2022-10-16T19:06:16.997Z,14.90
2022-10-16T19:08:44.380Z,14.90
2022-10-16T19:11:14.851Z,14.90
2022-10-16T19:13:43.012Z,14.80
2022-10-16T19:16:21.205Z,14.80
2022-10-16T19:18:54.483Z,14.80
2022-10-16T19:21:22.350Z,14.80
2022-10-16T19:23:57.255Z,14.70
2022-10-16T19:26:24.887Z,14.90
2022-10-16T19:28:53.763Z,14.80
2022-10-16T19:31:24.848Z,14.80
2022-10-16T19:33:53.801Z,14.80
2022-10-16T19:36:27.206Z,14.70
2022-10-16T19:39:03.321Z,14.80
2022-10-16T19:41:31.423Z,14.80
2022-10-16T19:44:06.766Z,14.90
2022-10-16T19:46:34.462Z,14.70
2022-10-16T19:49:04.616Z,14.50
2022-10-16T19:51:31.924Z,14.50
2022-10-16T19:54:04.636Z,14.30
2022-10-16T19:56:32.390Z,14.30
2022-10-16T19:59:00.485Z,14.30
2022-10-16T20:01:29.209Z,14.30
2022-10-16T20:03:56.846Z,14.40
2022-10-16T20:06:24.666Z,14.30
2022-10-16T20:08:53.029Z,14.20
2022-10-16T20:11:28.627Z,14.10
2022-10-16T20:13:55.890Z,14.10
2022-10-16T20:16:23.406Z,14.00
2022-10-16T20:18:51.423Z,14.00
2022-10-16T20:21:24.302Z,13.90
2022-10-16T20:23:51.680Z,13.80
2022-10-16T20:26:20.556Z,13.90
2022-10-16T20:28:47.701Z,14.00
2022-10-16T20:31:18.248Z,13.80
2022-10-16T20:33:45.229Z,13.70
2022-10-16T20:36:14.312Z,13.70
2022-10-16T20:38:42.291Z,13.70
2022-10-16T20:41:10.122Z,13.70
2022-10-16T20:43:40.850Z,13.70
2022-10-16T20:46:13.274Z,13.50
2022-10-16T20:48:44.132Z,13.50
2022-10-16T20:51:16.071Z,13.50
2022-10-16T20:53:44.081Z,13.50
2022-10-16T20:56:12.620Z,13.40
2022-10-16T20:58:40.452Z,13.30
2022-10-16T21:01:09.381Z,13.30
2022-10-16T21:03:37.582Z,13.30
2022-10-16T21:06:09.351Z,13.30
2022-10-16T21:08:42.210Z,13.30
2022-10-16T21:11:23.236Z,13.20
2022-10-16T21:13:52.956Z,13.10
2022-10-16T21:16:20.660Z,13.20
2022-10-16T21:18:48.343Z,13.10
2022-10-16T21:21:27.461Z,13.10
2022-10-16T21:23:55.926Z,13.10
2022-10-16T21:26:26.195Z,13.00
2022-10-16T21:28:58.353Z,13.00
2022-10-16T21:31:25.407Z,13.00
2022-10-16T21:33:52.969Z,13.00
2022-10-16T21:36:23.080Z,13.00
2022-10-16T21:38:50.095Z,13.00
2022-10-16T21:41:21.245Z,13.10
2022-10-16T21:43:48.699Z,13.00
2022-10-16T21:46:17.184Z,12.90
2022-10-16T21:48:43.991Z,12.90
2022-10-16T21:51:11.914Z,12.90
2022-10-16T21:53:38.984Z,12.90
2022-10-16T21:56:12.775Z,12.80
2022-10-16T21:58:39.529Z,12.90
2022-10-16T22:01:08.080Z,12.70
2022-10-16T22:03:34.881Z,12.80
2022-10-16T22:06:06.688Z,12.80
2022-10-16T22:08:35.564Z,12.90
2022-10-16T22:11:04.495Z,12.80
2022-10-16T22:13:31.378Z,12.80
2022-10-16T22:15:58.053Z,12.70
2022-10-16T22:18:24.917Z,12.80
2022-10-16T22:20:51.611Z,12.90
2022-10-16T22:23:18.428Z,12.80
2022-10-16T22:25:45.221Z,12.90
2022-10-16T22:28:12.151Z,12.90
2022-10-16T22:30:40.121Z,12.80
2022-10-16T22:33:07.334Z,12.80
2022-10-16T22:35:38.639Z,12.90
2022-10-16T22:38:06.561Z,12.90
2022-10-16T22:40:37.638Z,12.80
2022-10-16T22:43:05.872Z,12.70
2022-10-16T22:45:34.634Z,12.80
2022-10-16T22:48:01.936Z,12.70
2022-10-16T22:50:29.011Z,12.60
2022-10-16T22:52:56.306Z,12.60
2022-10-16T22:55:23.285Z,12.60
2022-10-16T22:57:50.017Z,12.60
2022-10-16T23:00:19.467Z,12.60
2022-10-16T23:02:46.555Z,12.50
2022-10-16T23:05:13.349Z,12.60
2022-10-16T23:07:40.115Z,12.50
2022-10-16T23:10:08.599Z,12.50
2022-10-16T23:12:36.547Z,12.50
2022-10-16T23:15:04.039Z,12.40
2022-10-16T23:17:30.740Z,12.40
2022-10-16T23:19:57.474Z,12.40
2022-10-16T23:22:24.391Z,12.40
2022-10-16T23:24:51.179Z,12.40
2022-10-16T23:27:17.859Z,12.40
2022-10-16T23:29:44.521Z,12.40
2022-10-16T23:32:11.879Z,12.30
2022-10-16T23:34:38.677Z,12.20
2022-10-16T23:37:06.560Z,12.30
2022-10-16T23:39:33.533Z,12.30
2022-10-16T23:42:00.251Z,12.30
2022-10-16T23:44:26.925Z,12.20
2022-10-16T23:46:53.630Z,12.20
2022-10-16T23:49:20.437Z,12.20
2022-10-16T23:51:47.125Z,12.10
2022-10-16T23:54:13.897Z,12.10
2022-10-16T23:56:40.641Z,12.10
2022-10-16T23:59:07.454Z,12.10
